Time;durP1;ratioP1;P1;durP2;ratioP2;P2;SDS_P1;SDS_P2;PMS_P1;PMS_P2;Temp;Humidity;BMP_temperature;BMP_pressure;BME280_temperature;BME280_humidity;BME280_pressure;Samples;Min_cycle;Max_cycle;Signal;HPM_P1;HPM_P2
2022/01/27 00:01:33;;;;;;;27.35;19.98;;;;;;;4.89;85.85;102702.22;4788412;30;20047;-50
2022/01/27 00:06:30;;;;;;;25.58;19.27;;;;;;;4.89;85.88;102687.88;4857899;29;20570;-51
2022/01/27 00:09:07;;;;;;;24.85;18.10;;;;;;;4.92;86.45;102676.69;4863221;29;20042;-51
2022/01/27 00:11:35;;;;;;;26.73;19.55;;;;;;;4.89;85.93;102664.41;4863537;29;20080;-48
2022/01/27 00:14:03;;;;;;;26.88;18.13;;;;;;;4.90;85.65;102668.75;4862760;29;20049;-48
2022/01/27 00:16:38;;;;;;;30.25;19.55;;;;;;;4.91;85.86;102664.22;4862815;29;20049;-51
2022/01/27 00:19:06;;;;;;;19.67;13.88;;;;;;;4.93;86.36;102656.78;4860723;29;20057;-51
2022/01/27 00:21:33;;;;;;;22.13;15.38;;;;;;;5.07;89.31;102652.38;4863258;29;20192;-44
2022/01/27 00:24:01;;;;;;;24.75;17.23;;;;;;;5.03;87.59;102651.94;4862972;29;20084;-45
2022/01/27 00:26:29;;;;;;;23.10;16.25;;;;;;;5.01;87.03;102656.69;4862920;29;20057;-48
2022/01/27 00:28:56;;;;;;;25.35;19.42;;;;;;;5.00;86.56;102654.16;4862825;29;20055;-48
2022/01/27 00:31:24;;;;;;;29.35;19.02;;;;;;;4.98;86.65;102665.16;4862810;29;20057;-44
2022/01/27 00:33:53;;;;;;;23.67;17.30;;;;;;;4.97;86.26;102658.06;4862880;29;20049;-45
2022/01/27 00:36:20;;;;;;;30.52;20.40;;;;;;;4.93;85.78;102659.47;4862578;29;20084;-44
2022/01/27 00:38:49;;;;;;;27.92;19.52;;;;;;;4.92;85.70;102652.38;4862339;29;20505;-44
2022/01/27 00:41:21;;;;;;;22.05;16.20;;;;;;;4.99;88.45;102642.50;4862846;29;20492;-44
2022/01/27 00:43:50;;;;;;;25.70;17.95;;;;;;;5.09;88.97;102642.22;4845928;29;20517;-48
2022/01/27 00:46:18;;;;;;;26.67;19.13;;;;;;;5.03;87.13;102641.13;4862446;29;20428;-44
2022/01/27 00:48:47;;;;;;;26.08;17.30;;;;;;;5.00;87.19;102649.56;4861932;29;20048;-50
2022/01/27 00:51:22;;;;;;;27.15;19.27;;;;;;;4.98;86.17;102648.09;4862495;29;20053;-49
2022/01/27 00:54:17;;;;;;;26.08;19.25;;;;;;;4.93;86.07;102653.22;4862498;29;20077;-49
2022/01/27 01:01:52;;;;;;;;;;;;;;;4.91;86.32;102632.63;4862874;29;20053;-47
2022/01/27 01:04:26;;;;;;;25.17;17.75;;;;;;;4.90;85.51;102624.72;4862356;29;19924;-49
2022/01/27 01:06:54;;;;;;;24.85;18.27;;;;;;;4.95;86.14;102616.06;4862287;29;20110;-51
2022/01/27 01:33:13;;;;;;;24.50;16.90;;;;;;;5.00;85.85;102603.66;4861744;29;20045;-50
2022/01/27 01:38:18;;;;;;;24.52;17.67;;;;;;;4.93;86.43;102569.47;4861795;29;20065;-51
2022/01/27 01:40:51;;;;;;;26.40;18.92;;;;;;;4.93;86.24;102570.34;4844921;29;20123;-52
2022/01/27 01:43:20;;;;;;;25.25;18.33;;;;;;;4.95;86.90;102579.06;4862151;29;20056;-54
2022/01/27 01:45:48;;;;;;;24.75;18.33;;;;;;;4.95;86.07;102583.63;4862184;29;20056;-51
2022/01/27 01:48:17;;;;;;;26.33;18.27;;;;;;;4.95;86.06;102589.03;4862115;29;20054;-50
2022/01/27 01:50:45;;;;;;;25.70;18.02;;;;;;;4.93;85.90;102585.69;4844758;29;20469;-50
2022/01/27 01:53:12;;;;;;;25.40;18.25;;;;;;;4.94;85.94;102582.81;4857913;29;20434;-50
2022/01/27 01:55:40;;;;;;;26.63;18.55;;;;;;;5.03;86.18;102567.34;4861689;29;20412;-46
2022/01/27 01:58:08;;;;;;;26.70;18.08;;;;;;;4.97;85.82;102582.44;4861471;29;20053;-50
2022/01/27 02:00:36;;;;;;;24.38;17.50;;;;;;;4.96;85.69;102579.94;4861255;29;20102;-51
2022/01/27 02:03:04;;;;;;;22.65;15.82;;;;;;;4.97;86.25;102555.41;4861044;29;20064;-49
2022/01/27 02:05:38;;;;;;;22.15;15.48;;;;;;;5.03;86.12;102538.47;4861514;29;20093;-48
2022/01/27 02:19:27;;;;;;;21.58;15.20;;;;;;;5.03;86.19;102530.38;4863559;29;20053;-48
2022/01/27 02:22:00;;;;;;;23.45;16.35;;;;;;;4.99;86.01;102526.34;4860361;29;20049;-46
2022/01/27 02:24:29;;;;;;;24.20;16.83;;;;;;;4.98;85.92;102529.22;4860666;29;20053;-48
2022/01/27 02:26:58;;;;;;;21.92;15.10;;;;;;;4.96;85.69;102529.44;4860961;29;20045;-49
2022/01/27 02:29:26;;;;;;;23.20;18.15;;;;;;;4.97;85.65;102522.16;4861340;29;20049;-48
2022/01/27 02:31:55;;;;;;;22.60;16.73;;;;;;;4.96;86.00;102526.75;4860242;29;20416;-49
2022/01/27 02:34:23;;;;;;;19.60;14.70;;;;;;;4.98;86.13;102524.69;4860619;29;20045;-51
2022/01/27 02:36:51;;;;;;;23.88;17.90;;;;;;;4.97;85.98;102525.69;4860722;29;20106;-47
2022/01/27 02:39:19;;;;;;;28.40;17.70;;;;;;;4.98;86.00;102522.00;4860946;29;20056;-46
2022/01/27 02:42:00;;;;;;;23.63;17.63;;;;;;;4.98;86.06;102519.28;4859948;29;20042;-53
2022/01/27 02:44:46;;;;;;;21.48;16.13;;;;;;;5.01;86.05;102510.81;4861260;29;20057;-50
2022/01/27 02:47:17;;;;;;;25.73;16.63;;;;;;;4.98;85.79;102505.78;4861253;29;20048;-49
2022/01/27 02:49:45;;;;;;;20.40;15.05;;;;;;;4.98;86.16;102497.69;4851833;29;20053;-50
2022/01/27 02:52:12;;;;;;;23.02;16.90;;;;;;;4.97;86.16;102496.00;4851860;29;20041;-48
2022/01/27 02:54:40;;;;;;;21.75;16.02;;;;;;;4.99;86.51;102499.34;4860050;29;20041;-47
2022/01/27 02:57:25;;;;;;;22.90;16.58;;;;;;;5.00;85.95;102490.19;4860893;29;20144;-48
2022/01/27 02:59:53;;;;;;;26.13;17.98;;;;;;;5.01;86.41;102500.00;4860672;29;20389;-49
2022/01/27 03:02:22;;;;;;;23.20;16.10;;;;;;;4.98;86.28;102496.81;4859709;29;20069;-50
2022/01/27 03:04:50;;;;;;;23.60;17.27;;;;;;;5.00;86.30;102479.38;4860655;29;20053;-50
2022/01/27 03:07:18;;;;;;;22.10;16.35;;;;;;;4.99;86.51;102487.72;4860885;29;20044;-50
2022/01/27 03:09:45;;;;;;;19.55;14.57;;;;;;;5.01;86.59;102480.25;4860829;29;20046;-49
2022/01/27 03:12:13;;;;;;;20.83;15.07;;;;;;;5.01;87.06;102464.88;4860024;29;20049;-50
2022/01/27 03:14:41;;;;;;;24.67;17.52;;;;;;;5.04;87.04;102456.38;4859644;29;20049;-49
2022/01/27 03:17:10;;;;;;;23.60;17.48;;;;;;;5.03;86.89;102487.13;4860503;29;20041;-50
2022/01/27 03:19:38;;;;;;;22.65;16.73;;;;;;;5.03;87.01;102476.34;4860226;29;20050;-47
2022/01/27 03:22:07;;;;;;;25.48;17.52;;;;;;;5.02;87.02;102461.13;4860099;29;20055;-45
2022/01/27 03:24:36;;;;;;;23.13;16.77;;;;;;;5.02;86.87;102461.13;4860092;29;20045;-49
2022/01/27 03:27:15;;;;;;;24.13;16.83;;;;;;;5.00;87.24;102475.84;4860544;29;20041;-48
2022/01/27 03:29:43;;;;;;;22.52;17.15;;;;;;;4.98;87.19;102457.16;4860645;29;20120;-49
2022/01/27 03:32:11;;;;;;;23.80;15.75;;;;;;;5.00;87.36;102460.47;4860492;29;20050;-50
2022/01/27 03:34:39;;;;;;;22.95;16.77;;;;;;;5.01;87.49;102462.19;4859964;29;20061;-46
2022/01/27 03:37:06;;;;;;;25.42;17.13;;;;;;;5.03;87.43;102462.00;4860675;29;20057;-50
2022/01/27 03:39:37;;;;;;;24.70;17.50;;;;;;;5.05;87.29;102457.22;4860308;29;20045;-50
2022/01/27 03:42:06;;;;;;;21.13;15.30;;;;;;;5.03;87.30;102443.91;4860471;29;20499;-50
2022/01/27 03:44:34;;;;;;;21.48;14.75;;;;;;;5.07;87.60;102447.06;4860057;29;20185;-48
2022/01/27 03:47:02;;;;;;;21.38;14.45;;;;;;;5.08;87.46;102446.03;4860214;29;20046;-48
2022/01/27 03:49:30;;;;;;;24.42;16.02;;;;;;;5.06;87.59;102435.41;4860791;29;20052;-47
2022/01/27 03:52:00;;;;;;;26.52;17.73;;;;;;;5.04;87.75;102440.19;4863662;29;20042;-48
2022/01/27 03:54:30;;;;;;;25.50;17.38;;;;;;;5.05;87.61;102444.56;4862989;29;20051;-48
2022/01/27 03:56:59;;;;;;;21.00;13.60;;;;;;;5.18;88.72;102413.31;4863064;29;20418;-48
2022/01/27 03:59:27;;;;;;;22.83;16.40;;;;;;;5.11;88.08;102408.66;4863424;29;20048;-48
2022/01/27 04:01:55;;;;;;;18.30;13.20;;;;;;;5.19;89.39;102409.56;4863250;29;20532;-48
2022/01/27 04:04:25;;;;;;;18.98;13.77;;;;;;;5.18;88.63;102405.22;4863184;29;20049;-48
2022/01/27 04:06:53;;;;;;;24.35;16.27;;;;;;;5.15;88.30;102400.16;4863251;29;20400;-51
2022/01/27 04:09:20;;;;;;;20.70;14.77;;;;;;;5.11;87.92;102405.13;4863544;29;20417;-49
2022/01/27 04:11:48;;;;;;;21.33;16.25;;;;;;;5.09;88.28;102402.59;4863352;29;20420;-51
2022/01/27 04:14:16;;;;;;;23.77;16.50;;;;;;;5.07;88.39;102409.25;4863358;29;20057;-50
2022/01/27 04:16:43;;;;;;;16.77;12.13;;;;;;;5.17;89.32;102408.91;4862695;29;20056;-49
2022/01/27 04:19:11;;;;;;;20.52;14.30;;;;;;;5.18;88.29;102405.22;4863005;29;20053;-50
2022/01/27 04:21:39;;;;;;;23.02;16.05;;;;;;;5.11;88.48;102403.25;4862964;29;20044;-48
2022/01/27 04:24:08;;;;;;;24.50;16.60;;;;;;;5.10;88.37;102387.25;4863041;29;20053;-48
2022/01/27 04:26:46;;;;;;;21.17;11.68;;;;;;;5.12;88.96;102377.94;4862221;29;20045;-48
2022/01/27 04:29:15;;;;;;;22.58;15.48;;;;;;;5.11;88.92;102375.41;4863318;29;20378;-49
2022/01/27 04:31:44;;;;;;;25.75;17.25;;;;;;;5.05;88.87;102385.13;4863352;29;20054;-50
2022/01/27 04:34:14;;;;;;;23.35;15.13;;;;;;;5.11;89.72;102376.25;4862964;29;20393;-49
2022/01/27 04:36:43;;;;;;;26.50;16.55;;;;;;;5.08;89.08;102384.75;4862618;29;20056;-47
2022/01/27 04:41:54;;;;;;;24.48;15.90;;;;;;;5.01;89.43;102370.34;4862940;29;20132;-49
2022/01/27 04:44:30;;;;;;;24.98;16.25;;;;;;;5.05;90.10;102358.13;4862721;29;20101;-48
2022/01/27 04:49:28;;;;;;;22.13;14.40;;;;;;;5.01;89.83;102361.41;4862461;29;20076;-47
2022/01/27 04:51:56;;;;;;;21.48;13.98;;;;;;;5.01;89.90;102367.63;4862536;29;20061;-49
2022/01/27 04:54:33;;;;;;;26.40;16.75;;;;;;;4.98;90.12;102357.22;4862677;29;20573;-49
2022/01/27 04:57:03;;;;;;;22.45;13.68;;;;;;;4.99;90.32;102353.47;4862245;29;20452;-48
2022/01/27 04:59:36;;;;;;;20.98;14.82;;;;;;;5.01;90.29;102356.81;4862287;29;20151;-48
2022/01/27 05:02:10;;;;;;;20.33;14.90;;;;;;;5.01;90.47;102340.63;4861849;29;20054;-49
2022/01/27 05:04:44;;;;;;;27.15;16.85;;;;;;;5.01;90.49;102343.31;4862129;29;20054;-51
2022/01/27 05:07:12;;;;;;;23.65;15.00;;;;;;;5.03;90.72;102338.56;4862098;29;20050;-48
2022/01/27 05:09:49;;;;;;;20.48;14.88;;;;;;;5.04;90.45;102340.22;4862110;29;20057;-50
2022/01/27 05:12:27;;;;;;;23.48;16.25;;;;;;;5.03;90.53;102321.53;4863001;29;20060;-49
2022/01/27 05:14:58;;;;;;;22.30;15.25;;;;;;;5.06;90.72;102326.53;4845847;29;20496;-47
2022/01/27 05:17:26;;;;;;;25.40;15.57;;;;;;;5.08;90.55;102324.47;4862115;29;20452;-48
2022/01/27 05:19:53;;;;;;;21.67;14.63;;;;;;;5.07;90.49;102323.63;4861795;29;20073;-48
2022/01/27 05:22:21;;;;;;;18.88;13.23;;;;;;;5.11;90.87;102311.41;4861998;29;20042;-48
2022/01/27 05:24:49;;;;;;;20.52;14.15;;;;;;;5.13;90.73;102303.13;4862334;29;20050;-50
2022/01/27 05:27:17;;;;;;;24.52;15.48;;;;;;;5.10;90.60;102307.03;4861694;29;20060;-48
2022/01/27 05:29:45;;;;;;;21.85;14.85;;;;;;;5.09;90.66;102304.53;4862105;29;20049;-49
2022/01/27 05:32:12;;;;;;;21.88;14.65;;;;;;;5.15;91.00;102302.91;4861398;29;20046;-48
2022/01/27 05:34:40;;;;;;;21.00;14.45;;;;;;;5.16;90.87;102304.59;4862115;29;20041;-48
2022/01/27 05:37:07;;;;;;;20.83;13.23;;;;;;;5.16;91.00;102291.06;4861694;29;20046;-47
2022/01/27 05:39:40;;;;;;;24.63;15.07;;;;;;;5.23;90.85;102294.66;4861644;29;20552;-50
2022/01/27 05:42:08;;;;;;;18.13;11.63;;;;;;;5.26;91.38;102286.16;4861836;29;20129;-48
2022/01/27 05:44:35;;;;;;;25.80;16.23;;;;;;;5.21;91.00;102296.72;4861793;29;20049;-48
2022/01/27 05:47:03;;;;;;;25.42;15.68;;;;;;;5.24;91.17;102301.72;4861389;29;20489;-49
2022/01/27 05:49:31;;;;;;;19.58;13.45;;;;;;;5.20;91.38;102297.78;4861556;29;20049;-48
2022/01/27 05:51:58;;;;;;;22.83;14.73;;;;;;;5.19;91.48;102298.78;4861008;29;20056;-47
2022/01/27 05:54:26;;;;;;;17.02;10.88;;;;;;;5.27;91.27;102298.66;4861277;29;20046;-48
2022/01/27 05:56:54;;;;;;;19.67;13.13;;;;;;;5.24;91.39;102290.91;4861241;29;20058;-49
2022/01/27 05:59:21;;;;;;;20.83;15.15;;;;;;;5.20;91.56;102285.09;4860858;29;20049;-49
2022/01/27 06:01:49;;;;;;;21.33;14.77;;;;;;;5.21;91.73;102286.75;4861282;29;20049;-48
2022/01/27 06:04:16;;;;;;;21.45;14.00;;;;;;;5.20;92.21;102284.25;4845105;29;20050;-49
2022/01/27 06:06:44;;;;;;;23.92;14.48;;;;;;;5.21;92.53;102269.69;4861130;29;20046;-48
2022/01/27 06:09:12;;;;;;;19.20;13.05;;;;;;;5.30;93.38;102273.94;4861045;29;20049;-48
2022/01/27 06:11:40;;;;;;;23.45;15.52;;;;;;;5.26;93.56;102278.88;4860584;29;20045;-49
2022/01/27 06:14:07;;;;;;;25.48;15.50;;;;;;;5.21;94.23;102280.50;4861016;29;20049;-48
2022/01/27 06:16:36;;;;;;;19.60;12.48;;;;;;;5.23;94.66;102273.06;4860804;29;20534;-49
2022/01/27 06:19:06;;;;;;;23.98;14.00;;;;;;;5.26;95.66;102259.97;4860939;29;20063;-51
2022/01/27 06:21:35;;;;;;;24.58;15.13;;;;;;;5.25;95.75;102265.59;4860771;29;20042;-46
2022/01/27 06:24:03;;;;;;;25.10;15.65;;;;;;;5.22;96.36;102263.25;4860547;29;20045;-48
2022/01/27 06:26:31;;;;;;;20.13;13.88;;;;;;;5.15;96.54;102262.38;4860991;29;20041;-49
2022/01/27 06:28:59;;;;;;;26.85;16.88;;;;;;;5.11;97.30;102260.06;4860863;29;20041;-48
2022/01/27 06:31:26;;;;;;;18.50;12.13;;;;;;;5.20;97.18;102257.25;4860356;29;20132;-48
2022/01/27 06:33:54;;;;;;;25.02;15.48;;;;;;;5.20;97.34;102259.94;4860830;29;20365;-49
2022/01/27 06:36:22;;;;;;;18.98;12.82;;;;;;;5.22;97.12;102260.56;4860410;29;20520;-48
2022/01/27 06:38:54;;;;;;;25.23;16.17;;;;;;;5.27;97.15;102258.94;4860643;29;20053;-48
2022/01/27 06:41:22;;;;;;;26.40;16.30;;;;;;;5.28;96.92;102251.66;4860830;29;20076;-44
2022/01/27 06:43:49;;;;;;;17.92;11.65;;;;;;;5.23;97.26;102257.66;4860711;29;20516;-50
2022/01/27 06:46:17;;;;;;;23.58;15.40;;;;;;;5.28;97.16;102252.50;4861058;29;20056;-48
2022/01/27 06:48:45;;;;;;;24.90;15.80;;;;;;;5.21;97.34;102259.72;4860947;29;20093;-46
2022/01/27 06:51:46;;;;;;;24.67;15.65;;;;;;;5.16;97.53;102234.34;4785211;30;20063;-43
2022/01/27 06:54:16;;;;;;;15.27;9.10;;;;;;;5.23;98.93;102238.75;4785249;30;20075;-49
2022/01/27 06:56:45;;;;;;;28.30;17.05;;;;;;;5.17;97.54;102242.25;4767844;30;20058;-46
2022/01/27 06:59:12;;;;;;;24.35;16.63;;;;;;;5.33;97.70;102246.50;4778191;30;20047;-45
2022/01/27 07:01:40;;;;;;;27.10;17.10;;;;;;;5.31;96.99;102243.16;4452428;30;10000483;-43
2022/01/27 07:04:08;;;;;;;23.17;15.85;;;;;;;5.27;97.30;102240.03;4782973;30;20059;-44
2022/01/27 07:06:36;;;;;;;24.75;15.30;;;;;;;5.29;97.43;102234.41;4786238;30;20062;-48
2022/01/27 07:09:04;;;;;;;23.27;15.88;;;;;;;5.30;97.24;102234.22;4811985;29;20079;-45
2022/01/27 07:11:31;;;;;;;26.63;16.60;;;;;;;5.30;97.42;102230.69;4857695;29;20657;-44
2022/01/27 07:13:59;;;;;;;29.92;16.10;;;;;;;5.30;97.35;102225.28;4856953;29;20060;-49
2022/01/27 07:16:26;;;;;;;19.83;11.98;;;;;;;5.46;97.59;102229.53;4857009;29;20054;-47
2022/01/27 07:18:55;;;;;;;25.65;17.42;;;;;;;5.32;97.64;102239.44;4853679;29;20057;-45
2022/01/27 07:21:22;;;;;;;28.40;17.20;;;;;;;5.29;97.70;102246.09;4856929;29;20509;-45
2022/01/27 07:23:50;;;;;;;25.48;16.52;;;;;;;5.25;98.17;102250.19;4857753;29;20045;-44
2022/01/27 07:26:24;;;;;;;22.83;13.90;;;;;;;5.44;98.75;102259.47;4860668;29;20045;-43
2022/01/27 07:28:56;;;;;;;26.70;17.60;;;;;;;5.37;97.76;102264.00;4860712;29;20046;-49
2022/01/27 07:31:23;;;;;;;26.10;16.52;;;;;;;5.41;98.62;102259.88;4860354;29;20125;-49
2022/01/27 07:33:52;;;;;;;18.60;10.75;;;;;;;5.46;98.61;102272.78;4860018;29;20125;-49
2022/01/27 07:36:20;;;;;;;27.02;17.05;;;;;;;5.47;97.84;102260.94;4858291;29;20049;-46
2022/01/27 07:38:48;;;;;;;25.13;17.40;;;;;;;5.43;98.02;102255.09;4856956;29;20492;-46
2022/01/27 07:41:17;;;;;;;27.08;16.95;;;;;;;5.36;98.15;102251.50;4860515;29;20519;-46
2022/01/27 07:43:46;;;;;;;24.67;17.25;;;;;;;5.34;98.45;102254.44;4860394;29;20050;-47
2022/01/27 07:46:14;;;;;;;25.00;15.93;;;;;;;5.44;99.37;102262.19;4859708;29;20117;-51
2022/01/27 07:48:42;;;;;;;27.15;17.42;;;;;;;5.39;99.64;102255.69;4860491;29;20128;-48
2022/01/27 07:51:10;;;;;;;25.95;16.63;;;;;;;5.37;100.00;102264.00;4858932;29;20049;-48
2022/01/27 07:53:38;;;;;;;25.95;16.65;;;;;;;5.38;100.00;102262.13;4860117;29;20065;-47
2022/01/27 07:56:26;;;;;;;23.08;15.10;;;;;;;5.35;100.00;102263.38;4859693;29;20820;-47
2022/01/27 07:58:54;;;;;;;29.35;17.38;;;;;;;5.41;100.00;102265.28;4859900;29;20041;-48
2022/01/27 08:01:22;;;;;;;23.08;14.55;;;;;;;5.36;100.00;102267.72;4860399;29;20049;-47
2022/01/27 08:03:50;;;;;;;24.15;16.27;;;;;;;5.32;100.00;102258.38;4863689;29;20489;-46
2022/01/27 08:06:18;;;;;;;27.65;18.48;;;;;;;5.27;100.00;102275.16;4863883;29;20041;-48
2022/01/27 08:08:46;;;;;;;29.90;17.98;;;;;;;5.31;100.00;102271.00;4863207;29;20050;-48
2022/01/27 08:11:13;;;;;;;26.95;16.77;;;;;;;5.26;100.00;102257.25;4863013;29;20052;-48
2022/01/27 08:13:41;;;;;;;26.40;17.15;;;;;;;5.27;100.00;102258.13;4862861;29;20056;-48
2022/01/27 08:16:08;;;;;;;30.85;17.92;;;;;;;5.26;100.00;102268.06;4862983;29;20053;-49
2022/01/27 08:18:46;;;;;;;31.00;18.73;;;;;;;5.25;100.00;102262.88;4861765;29;20041;-47
2022/01/27 08:21:13;;;;;;;24.45;17.45;;;;;;;5.29;100.00;102277.66;4862825;29;20046;-47
2022/01/27 08:23:43;;;;;;;28.38;17.92;;;;;;;5.29;100.00;102275.81;4862789;29;20045;-50
2022/01/27 08:26:14;;;;;;;27.70;18.48;;;;;;;5.29;100.00;102261.44;4862889;29;20073;-48
2022/01/27 08:31:11;;;;;;;26.08;17.60;;;;;;;5.27;100.00;102258.13;4862873;29;20037;-45
2022/01/27 08:33:40;;;;;;;25.15;17.98;;;;;;;5.27;100.00;102253.53;4862752;29;20053;-48
2022/01/27 08:36:09;;;;;;;30.50;17.77;;;;;;;5.33;100.00;102260.03;4862033;29;20055;-48
2022/01/27 08:38:43;;;;;;;26.65;17.70;;;;;;;5.30;100.00;102263.13;4862699;29;20056;-47
2022/01/27 08:41:11;;;;;;;25.08;17.40;;;;;;;5.31;100.00;102249.41;4862523;29;20076;-46
2022/01/27 08:43:38;;;;;;;25.85;16.67;;;;;;;5.27;100.00;102258.13;4862628;29;20045;-48
2022/01/27 08:46:06;;;;;;;27.85;17.15;;;;;;;5.30;100.00;102255.00;4862336;29;20041;-48
2022/01/27 08:48:38;;;;;;;24.30;15.85;;;;;;;5.26;100.00;102256.44;4862784;29;20145;-48
2022/01/27 08:51:10;;;;;;;25.60;16.10;;;;;;;5.35;100.00;102244.44;4862291;29;20045;-48
2022/01/27 08:53:57;;;;;;;27.98;16.50;;;;;;;5.40;100.00;102247.38;4862268;29;20052;-49
2022/01/27 08:56:25;;;;;;;28.05;14.77;;;;;;;5.37;100.00;102257.78;4862432;29;20581;-50
2022/01/27 08:58:55;;;;;;;23.67;16.10;;;;;;;5.40;100.00;102252.78;4861135;29;20067;-47
2022/01/27 09:01:24;;;;;;;21.85;13.50;;;;;;;5.43;100.00;102256.97;4845230;29;20508;-51
2022/01/27 09:03:52;;;;;;;23.58;14.35;;;;;;;5.47;100.00;102253.66;4861816;29;20458;-49
2022/01/27 09:06:20;;;;;;;21.77;14.15;;;;;;;5.52;100.00;102256.59;4861905;29;20085;-49
2022/01/27 09:08:49;;;;;;;23.85;15.07;;;;;;;5.47;100.00;102256.38;4861747;29;20053;-49
2022/01/27 09:11:17;;;;;;;22.70;15.27;;;;;;;5.43;100.00;102251.56;4861624;29;20064;-51
2022/01/27 09:13:44;;;;;;;25.67;14.52;;;;;;;5.60;100.00;102246.66;4862051;29;20056;-50
2022/01/27 09:16:12;;;;;;;22.27;15.52;;;;;;;5.52;100.00;102253.91;4862205;29;20060;-49
2022/01/27 09:18:40;;;;;;;26.95;15.55;;;;;;;5.52;100.00;102250.38;4844856;29;20086;-51
2022/01/27 09:21:14;;;;;;;21.65;14.85;;;;;;;5.48;100.00;102249.94;4844792;29;20041;-47
2022/01/27 09:23:41;;;;;;;23.23;15.30;;;;;;;5.45;100.00;102250.31;4861771;29;20048;-54
2022/01/27 09:26:26;;;;;;;19.70;11.88;;;;;;;5.51;100.00;102241.44;4861799;29;20052;-52
2022/01/27 09:28:54;;;;;;;22.92;14.32;;;;;;;5.52;100.00;102243.09;4861985;29;20084;-48
2022/01/27 09:31:21;;;;;;;20.98;13.68;;;;;;;5.51;100.00;102249.53;4861737;29;20049;-47
2022/01/27 09:33:49;;;;;;;20.35;12.93;;;;;;;5.52;100.00;102236.84;4861870;29;20132;-49
2022/01/27 09:36:16;;;;;;;18.08;12.02;;;;;;;5.57;100.00;102252.47;4861674;29;20045;-52
2022/01/27 09:38:44;;;;;;;17.98;12.55;;;;;;;5.59;100.00;102251.25;4861539;29;20042;-49
2022/01/27 09:41:14;;;;;;;18.67;12.98;;;;;;;5.67;100.00;102245.66;4861626;29;20045;-48
2022/01/27 09:43:43;;;;;;;20.20;12.60;;;;;;;5.68;100.00;102251.94;4844925;29;20049;-49
2022/01/27 09:46:13;;;;;;;17.83;11.55;;;;;;;5.61;100.00;102248.34;4861546;29;20420;-49
2022/01/27 09:48:44;;;;;;;17.95;12.20;;;;;;;5.57;100.00;102250.59;4844570;29;20076;-51
2022/01/27 09:53:39;;;;;;;18.63;12.20;;;;;;;5.50;100.00;102253.25;4861349;29;20057;-51
2022/01/27 09:56:07;;;;;;;19.88;13.05;;;;;;;5.51;100.00;102252.25;4844857;29;20053;-48
2022/01/27 09:58:55;;;;;;;18.35;12.50;;;;;;;5.53;100.00;102257.44;4861375;29;20046;-50
2022/01/27 10:01:23;;;;;;;17.63;10.68;;;;;;;5.57;100.00;102260.59;4861120;29;20075;-49
2022/01/27 10:03:56;;;;;;;17.60;11.10;;;;;;;5.58;100.00;102259.53;4861399;29;20062;-52
2022/01/27 10:06:28;;;;;;;19.02;11.73;;;;;;;5.60;100.00;102258.31;4861269;29;20057;-49
2022/01/27 10:09:16;;;;;;;16.88;9.80;;;;;;;5.70;100.00;102253.38;4860991;29;20053;-51
2022/01/27 10:11:47;;;;;;;15.65;9.57;;;;;;;5.69;100.00;102250.88;4861181;29;20045;-49
2022/01/27 10:14:21;;;;;;;16.20;9.52;;;;;;;5.70;100.00;102245.28;4861141;29;20422;-49
2022/01/27 10:16:53;;;;;;;13.30;8.95;;;;;;;5.73;100.00;102254.84;4861292;29;20533;-50
2022/01/27 10:19:22;;;;;;;15.35;8.77;;;;;;;5.72;100.00;102250.47;4826088;29;20077;-49
2022/01/27 10:21:51;;;;;;;13.02;8.52;;;;;;;5.74;100.00;102243.00;4850856;29;20050;-50
2022/01/27 10:24:27;;;;;;;13.57;8.90;;;;;;;5.86;100.00;102245.97;4844147;29;20082;-50
2022/01/27 10:27:55;;;;;;;14.00;8.07;;;;;;;5.92;100.00;102242.47;4861017;29;20045;-50
2022/01/27 10:32:59;;;;;;;10.60;6.07;;;;;;;5.89;100.00;102251.81;4860830;29;20045;-48
2022/01/27 10:35:28;;;;;;;11.85;7.55;;;;;;;5.88;100.00;102260.94;4860156;29;20408;-52
2022/01/27 10:38:09;;;;;;;11.57;6.82;;;;;;;5.90;100.00;102269.72;4860672;29;20466;-50
2022/01/27 10:40:38;;;;;;;12.95;6.65;;;;;;;5.94;100.00;102256.63;4860560;29;20050;-51
2022/01/27 10:43:19;;;;;;;10.95;6.80;;;;;;;5.93;100.00;102244.94;4860441;29;20417;-49
2022/01/27 10:46:26;;;;;;;10.32;6.03;;;;;;;5.94;100.00;102254.78;4860870;29;20082;-49
2022/01/27 10:49:09;;;;;;;10.38;6.20;;;;;;;5.93;100.00;102250.34;4860051;29;20057;-48
2022/01/27 10:51:50;;;;;;;11.27;6.30;;;;;;;5.92;100.00;102251.41;4859833;29;20420;-48
2022/01/27 10:54:35;;;;;;;12.25;6.45;;;;;;;5.90;100.00;102253.47;4860311;29;20528;-49
2022/01/27 10:57:13;;;;;;;12.32;6.68;;;;;;;5.93;100.00;102263.88;4860244;29;20098;-51
2022/01/27 10:59:42;;;;;;;9.82;5.82;;;;;;;5.94;100.00;102254.78;4863995;29;20076;-52
2022/01/27 11:02:12;;;;;;;10.00;5.85;;;;;;;5.94;100.00;102262.91;4864466;29;20060;-51
2022/01/27 11:04:42;;;;;;;10.80;5.78;;;;;;;5.95;100.00;102250.19;4864305;29;20098;-49
2022/01/27 11:07:14;;;;;;;12.45;6.38;;;;;;;5.96;100.00;102244.59;4864287;29;20045;-50
2022/01/27 11:09:43;;;;;;;9.38;5.47;;;;;;;5.98;100.00;102250.63;4863655;29;20041;-52
2022/01/27 11:12:16;;;;;;;13.88;7.18;;;;;;;6.03;100.00;102243.78;4864010;29;20046;-52
2022/01/27 11:14:51;;;;;;;12.70;6.43;;;;;;;6.08;100.00;102242.13;4864232;29;20046;-49
2022/01/27 11:17:20;;;;;;;14.60;6.30;;;;;;;6.13;100.00;102236.09;4863874;29;20047;-49
2022/01/27 11:27:39;;;;;;;9.83;5.40;;;;;;;6.17;100.00;102226.53;4178184;29;10001086;-48
2022/01/27 11:30:18;;;;;;;12.20;5.97;;;;;;;6.17;100.00;102221.97;4844216;29;20291;-49
2022/01/27 11:32:53;;;;;;;16.20;7.35;;;;;;;6.21;100.00;102211.56;4860848;29;20514;-50
2022/01/27 11:35:25;;;;;;;11.15;5.70;;;;;;;6.19;100.00;102221.75;4860580;29;20153;-50
2022/01/27 11:37:57;;;;;;;13.80;6.05;;;;;;;6.19;100.00;102208.22;4860286;29;20056;-50
2022/01/27 11:40:38;;;;;;;10.93;6.20;;;;;;;6.26;100.00;102217.19;4860424;29;20053;-49
2022/01/27 11:43:07;;;;;;;11.73;6.18;;;;;;;6.25;100.00;102209.28;4860457;29;20420;-49
2022/01/27 11:45:40;;;;;;;15.68;6.40;;;;;;;6.28;100.00;102207.00;4860237;29;20065;-48
2022/01/27 11:48:18;;;;;;;9.50;5.55;;;;;;;6.25;100.00;102206.56;4859995;29;20075;-50
2022/01/27 11:50:54;;;;;;;12.18;5.88;;;;;;;6.33;100.00;102209.94;4859136;29;20507;-49
2022/01/27 11:53:33;;;;;;;12.63;5.95;;;;;;;6.32;100.00;102202.00;4859912;29;20072;-49
2022/01/27 11:56:31;;;;;;;13.30;6.10;;;;;;;6.31;100.00;102212.00;4863030;29;20382;-49
2022/01/27 11:59:00;;;;;;;12.27;6.15;;;;;;;6.33;100.00;102203.69;4835074;29;20056;-46
2022/01/27 12:01:34;;;;;;;10.77;5.72;;;;;;;6.32;100.00;102205.53;4846797;29;20064;-47
2022/01/27 12:04:07;;;;;;;11.18;5.90;;;;;;;6.32;100.00;102205.53;4863512;29;20128;-49
2022/01/27 12:06:37;;;;;;;14.27;6.03;;;;;;;6.37;100.00;102194.97;4863079;29;20050;-49
2022/01/27 12:09:20;;;;;;;10.05;5.38;;;;;;;6.36;100.00;102209.50;4862846;29;20452;-47
2022/01/27 12:11:52;;;;;;;13.20;6.38;;;;;;;6.37;100.00;102211.19;4862562;29;20053;-50
2022/01/27 12:14:33;;;;;;;12.93;6.13;;;;;;;6.37;100.00;102203.06;4863201;29;20050;-49
2022/01/27 12:17:10;;;;;;;14.63;6.68;;;;;;;6.37;100.00;102200.38;4863023;29;20413;-52
2022/01/27 12:20:07;;;;;;;11.88;5.57;;;;;;;6.40;100.00;102191.81;4862913;29;20053;-49
2022/01/27 12:22:46;;;;;;;11.68;5.40;;;;;;;6.45;100.00;102187.69;4846603;29;20054;-50
2022/01/27 12:25:14;;;;;;;11.77;5.57;;;;;;;6.48;100.00;102190.78;4862671;29;20058;-51
2022/01/27 12:27:54;;;;;;;12.90;5.45;;;;;;;6.47;100.00;102193.69;4862617;29;20073;-47
2022/01/27 12:30:55;;;;;;;15.23;5.88;;;;;;;6.52;100.00;102185.81;4862996;29;20113;-49
2022/01/27 12:33:23;;;;;;;13.63;5.30;;;;;;;6.54;100.00;102181.00;4862540;29;20417;-49
2022/01/27 12:35:54;;;;;;;10.90;4.88;;;;;;;6.56;100.00;102176.19;4862944;29;20049;-54
2022/01/27 12:38:22;;;;;;;15.18;6.00;;;;;;;6.58;100.00;102168.72;4863006;29;20050;-52
2022/01/27 12:40:54;;;;;;;13.27;5.25;;;;;;;6.60;100.00;102169.34;4863024;29;20385;-53